createdAt,value
2022-10-07T00:00:51.256Z,102431.88
2022-10-07T00:03:19.769Z,102425.03
2022-10-07T00:05:47.678Z,102429.81
2022-10-07T00:08:15.612Z,102428.84
2022-10-07T00:10:44.921Z,102427.91
2022-10-07T00:13:13.131Z,102432.22
2022-10-07T00:15:41.045Z,102430.41
2022-10-07T00:18:09.036Z,102426.78
2022-10-07T00:20:39.236Z,102418.66
2022-10-07T00:23:07.834Z,102413.28
2022-10-07T00:25:36.986Z,102417.47
2022-10-07T00:28:06.367Z,102414.59
2022-10-07T00:30:34.414Z,102411.00
2022-10-07T00:33:02.339Z,102404.84
2022-10-07T00:35:31.010Z,102395.03
2022-10-07T00:37:59.317Z,102392.44
2022-10-07T00:40:27.194Z,102395.47
2022-10-07T00:42:55.062Z,102390.19
2022-10-07T00:45:24.477Z,102381.34
2022-10-07T00:47:52.421Z,102392.16
2022-10-07T00:50:21.660Z,102392.97
2022-10-07T00:52:52.067Z,102393.75
2022-10-07T00:55:21.800Z,102391.91
2022-10-07T00:57:50.063Z,102381.72
2022-10-07T01:00:18.308Z,102381.53
2022-10-07T01:02:48.759Z,102383.91
2022-10-07T01:05:17.788Z,102379.34
2022-10-07T01:07:46.871Z,102374.69
2022-10-07T01:10:17.165Z,102380.00
2022-10-07T01:12:51.505Z,102376.38
2022-10-07T01:15:24.931Z,102368.34
2022-10-07T01:17:57.648Z,102368.13
2022-10-07T01:20:39.432Z,102354.09
2022-10-07T01:23:14.742Z,102357.31
2022-10-07T01:25:49.859Z,102359.94
2022-10-07T01:28:21.027Z,102358.44
2022-10-07T01:30:50.399Z,102344.44
2022-10-07T01:33:19.452Z,102333.19
2022-10-07T01:35:48.168Z,102335.31
2022-10-07T01:38:18.001Z,102316.09
2022-10-07T01:40:47.500Z,102329.19
2022-10-07T01:43:15.656Z,102291.69
2022-10-07T01:45:44.979Z,102321.13
2022-10-07T01:48:12.898Z,102314.72
2022-10-07T01:50:40.745Z,102316.31
2022-10-07T01:53:20.330Z,102299.13
2022-10-07T01:55:59.597Z,102293.56
2022-10-07T01:58:38.385Z,102296.94
2022-10-07T02:01:13.211Z,102292.47
2022-10-07T02:04:08.868Z,102297.72
2022-10-07T02:06:40.461Z,102278.97
2022-10-07T02:09:13.004Z,102281.59
2022-10-07T02:11:41.332Z,102276.13
2022-10-07T02:14:11.151Z,102272.59
2022-10-07T02:16:45.094Z,102262.84
2022-10-07T02:19:15.503Z,102265.53
2022-10-07T02:21:43.449Z,102235.53
2022-10-07T02:24:12.036Z,102247.59
2022-10-07T02:26:39.893Z,102250.28
2022-10-07T02:29:08.953Z,102227.38
2022-10-07T02:31:36.884Z,102229.00
2022-10-07T02:34:06.119Z,102236.19
2022-10-07T02:36:35.371Z,102234.50
2022-10-07T02:39:03.733Z,102225.78
2022-10-07T02:41:35.479Z,102221.59
2022-10-07T02:44:10.765Z,102222.81
2022-10-07T02:46:39.821Z,102218.13
2022-10-07T02:49:09.659Z,102197.88
2022-10-07T02:51:46.545Z,102208.22
2022-10-07T02:54:14.406Z,102210.84
2022-10-07T02:56:42.336Z,102204.50
2022-10-07T02:59:11.016Z,102177.19
2022-10-07T03:01:40.467Z,102197.88
2022-10-07T03:04:09.787Z,102198.69
2022-10-07T03:06:37.669Z,102197.78
2022-10-07T03:09:05.640Z,102197.97
2022-10-07T03:11:33.574Z,102187.44
2022-10-07T03:14:01.810Z,102186.66
2022-10-07T03:16:29.756Z,102185.78
2022-10-07T03:18:58.943Z,102177.81
2022-10-07T03:21:28.193Z,102177.72
2022-10-07T03:23:56.174Z,102169.66
2022-10-07T03:26:24.068Z,102174.06
2022-10-07T03:28:51.950Z,102174.94
2022-10-07T03:31:19.892Z,102174.00
2022-10-07T03:33:47.951Z,102171.31
2022-10-07T03:36:15.868Z,102172.19
2022-10-07T03:38:45.206Z,102171.22
2022-10-07T03:41:13.040Z,102159.59
2022-10-07T03:43:41.065Z,102157.00
2022-10-07T03:46:09.091Z,102150.75
2022-10-07T03:48:37.006Z,102158.75
2022-10-07T03:51:05.138Z,102160.56
2022-10-07T03:53:32.996Z,102151.75
2022-10-07T03:56:02.222Z,102152.72
2022-10-07T03:58:30.456Z,102157.09
2022-10-07T04:01:05.709Z,102151.75
2022-10-07T04:03:33.578Z,102142.09
2022-10-07T04:06:01.548Z,102141.06
2022-10-07T04:08:29.737Z,102142.88
2022-10-07T04:10:58.167Z,102134.91
2022-10-07T04:13:27.436Z,102132.34
2022-10-07T04:15:55.629Z,102131.34
2022-10-07T04:18:23.532Z,102127.84
2022-10-07T04:20:51.397Z,102138.50
2022-10-07T04:23:19.261Z,102119.66
2022-10-07T04:25:47.772Z,102128.66
2022-10-07T04:28:17.390Z,102126.84
2022-10-07T04:30:51.251Z,102105.56
2022-10-07T04:33:19.290Z,102114.28
2022-10-07T04:35:47.152Z,102107.03
2022-10-07T04:38:15.884Z,102110.59
2022-10-07T04:40:44.509Z,102105.22
2022-10-07T04:43:23.426Z,102106.84
2022-10-07T04:45:54.254Z,102107.81
2022-10-07T04:48:23.188Z,102107.91
2022-10-07T04:50:52.373Z,102108.69
2022-10-07T04:53:20.340Z,102100.53
2022-10-07T04:55:48.936Z,102105.84
2022-10-07T04:58:16.918Z,102098.66
2022-10-07T05:00:45.822Z,102095.03
2022-10-07T05:03:15.676Z,102095.88
2022-10-07T05:05:43.938Z,102103.00
2022-10-07T05:08:12.497Z,102099.53
2022-10-07T05:10:40.696Z,102093.25
2022-10-07T05:13:09.472Z,102100.16
2022-10-07T05:15:37.363Z,102093.91
2022-10-07T05:18:06.459Z,102096.75
2022-10-07T05:20:39.717Z,102091.22
2022-10-07T05:23:07.624Z,102081.34
2022-10-07T05:25:35.505Z,102090.25
2022-10-07T05:28:03.435Z,102081.34
2022-10-07T05:30:31.454Z,102077.00
2022-10-07T05:32:59.469Z,102068.03
2022-10-07T05:35:27.378Z,102071.63
2022-10-07T05:37:56.938Z,102066.22
2022-10-07T05:40:24.915Z,102069.81
2022-10-07T05:42:52.809Z,102067.25
2022-10-07T05:45:20.861Z,102066.53
2022-10-07T05:47:53.734Z,102038.13
2022-10-07T05:50:21.685Z,102058.84
2022-10-07T05:52:51.927Z,102067.00
2022-10-07T05:55:21.174Z,102072.19
2022-10-07T05:57:49.749Z,102058.44
2022-10-07T06:00:18.305Z,102048.16
2022-10-07T06:02:46.696Z,102062.66
2022-10-07T06:05:14.821Z,102058.19
2022-10-07T06:07:42.941Z,102054.50
2022-10-07T06:10:29.053Z,102057.81
2022-10-07T06:13:10.646Z,102057.31
2022-10-07T06:15:38.673Z,102053.84
2022-10-07T06:18:06.705Z,102062.78
2022-10-07T06:20:34.565Z,102053.84
2022-10-07T06:23:02.701Z,102062.09
2022-10-07T06:25:30.638Z,102061.03
2022-10-07T06:28:03.260Z,102053.16
2022-10-07T06:30:38.669Z,102052.03
2022-10-07T06:33:06.641Z,102052.97
2022-10-07T06:35:34.603Z,102049.66
2022-10-07T06:38:04.967Z,102052.38
2022-10-07T06:40:33.734Z,102059.53
2022-10-07T06:43:03.424Z,102048.09
2022-10-07T06:45:31.842Z,102058.63
2022-10-07T06:47:59.916Z,102048.56
2022-10-07T06:50:27.784Z,102058.34
2022-10-07T06:52:55.691Z,102049.34
2022-10-07T06:55:24.337Z,102058.06
2022-10-07T06:57:53.656Z,102056.25
2022-10-07T07:00:23.025Z,102055.13
2022-10-07T07:02:51.164Z,102059.53
2022-10-07T07:05:19.333Z,102048.69
2022-10-07T07:07:47.737Z,102051.03
2022-10-07T07:10:16.098Z,102052.56
2022-10-07T07:12:44.517Z,102046.94
2022-10-07T07:15:12.846Z,102045.72
2022-10-07T07:17:42.210Z,102050.88
2022-10-07T07:20:10.973Z,102039.78
2022-10-07T07:22:39.307Z,102029.88
2022-10-07T07:25:08.267Z,102041.28
2022-10-07T07:27:39.572Z,102040.41
2022-10-07T07:30:08.431Z,102043.00
2022-10-07T07:32:36.414Z,102026.31
2022-10-07T07:35:06.561Z,102053.47
2022-10-07T07:37:34.509Z,102043.63
2022-10-07T07:40:02.647Z,102022.44
2022-10-07T07:42:37.321Z,102048.13
2022-10-07T07:45:05.907Z,102006.91
2022-10-07T07:47:34.147Z,102038.47
2022-10-07T07:50:03.436Z,102040.56
2022-10-07T07:52:32.906Z,102033.81
2022-10-07T07:55:03.174Z,102042.31
2022-10-07T07:57:31.477Z,102039.72
2022-10-07T07:59:59.344Z,102040.28
2022-10-07T08:02:27.230Z,102042.88
2022-10-07T08:04:55.296Z,102034.81
2022-10-07T08:07:23.208Z,102033.09
2022-10-07T08:09:52.627Z,102023.34
2022-10-07T08:12:22.259Z,102033.34
2022-10-07T08:14:50.199Z,102028.84
2022-10-07T08:17:18.067Z,102022.69
2022-10-07T08:19:45.972Z,102030.47
2022-10-07T08:22:17.857Z,101965.66
2022-10-07T08:24:45.961Z,102024.41
2022-10-07T08:27:15.456Z,102011.81
2022-10-07T08:29:43.391Z,102007.81
2022-10-07T08:32:11.429Z,102010.16
2022-10-07T08:34:39.463Z,102007.03
2022-10-07T08:37:07.451Z,102015.44
2022-10-07T08:39:38.509Z,102011.16
2022-10-07T08:42:08.714Z,102012.00
2022-10-07T08:44:40.095Z,102010.34
2022-10-07T08:47:16.034Z,102015.47
2022-10-07T08:49:49.388Z,102008.66
2022-10-07T08:52:26.305Z,102001.34
2022-10-07T08:54:54.204Z,102002.88
2022-10-07T08:57:26.476Z,102002.53
2022-10-07T08:59:58.080Z,101997.97
2022-10-07T09:02:29.783Z,102000.78
2022-10-07T09:05:01.794Z,101986.97
2022-10-07T09:07:33.873Z,101997.13
2022-10-07T09:10:04.574Z,101993.94
2022-10-07T09:12:37.936Z,101987.25
2022-10-07T09:15:08.499Z,101998.53
2022-10-07T09:17:37.474Z,101988.72
2022-10-07T09:20:07.136Z,101993.34
2022-10-07T09:22:36.276Z,101994.25
2022-10-07T09:25:17.173Z,101987.81
2022-10-07T09:27:45.361Z,101979.22
2022-10-07T09:30:15.532Z,101995.63
2022-10-07T09:32:44.796Z,101994.84
2022-10-07T09:35:14.079Z,101991.97
2022-10-07T09:38:01.913Z,101985.38
2022-10-07T09:40:37.599Z,101992.41
2022-10-07T09:43:14.173Z,101998.00
2022-10-07T09:45:45.555Z,101982.91
2022-10-07T09:48:19.333Z,101988.22
2022-10-07T09:50:48.168Z,101983.53
2022-10-07T09:53:19.180Z,101969.16
2022-10-07T09:55:47.068Z,101971.16
2022-10-07T09:58:19.454Z,101949.25
2022-10-07T10:00:49.525Z,101966.72
2022-10-07T10:03:17.447Z,101962.34
2022-10-07T10:05:53.446Z,101966.75
2022-10-07T10:08:24.541Z,101959.81
2022-10-07T10:10:53.347Z,101968.94
2022-10-07T10:13:29.565Z,101966.19
2022-10-07T10:15:59.337Z,101962.53
2022-10-07T10:18:32.844Z,101948.34
2022-10-07T10:21:16.545Z,101954.75
2022-10-07T10:23:47.098Z,101957.22
2022-10-07T10:26:34.154Z,101952.25
2022-10-07T10:29:13.983Z,101948.03
2022-10-07T10:31:55.047Z,101944.94
2022-10-07T10:34:29.648Z,101949.78
2022-10-07T10:37:01.370Z,101929.81
2022-10-07T10:39:41.901Z,101950.59
2022-10-07T10:42:12.027Z,101922.88
2022-10-07T10:44:49.669Z,101932.69
2022-10-07T10:47:24.087Z,101929.06
2022-10-07T10:49:55.867Z,101934.06
2022-10-07T10:52:35.514Z,101927.56
2022-10-07T10:55:21.715Z,101931.13
2022-10-07T10:58:00.038Z,101917.53
2022-10-07T11:00:29.818Z,101922.09
2022-10-07T11:03:13.911Z,101923.53
2022-10-07T11:05:42.592Z,101910.63
2022-10-07T11:08:12.569Z,101903.25
2022-10-07T11:10:42.135Z,101907.19
2022-10-07T11:13:20.475Z,101892.56
2022-10-07T11:15:49.442Z,101901.50
2022-10-07T11:18:21.872Z,101905.28
2022-10-07T11:20:50.348Z,101906.03
2022-10-07T11:23:22.425Z,101885.53
2022-10-07T11:25:52.611Z,101901.06
2022-10-07T11:28:22.619Z,101891.78
2022-10-07T11:30:54.542Z,101895.44
2022-10-07T11:33:28.740Z,101872.47
2022-10-07T11:35:58.572Z,101874.13
2022-10-07T11:38:28.327Z,101886.09
2022-10-07T11:40:57.311Z,101861.59
2022-10-07T11:43:26.609Z,101874.88
2022-10-07T11:45:56.342Z,101872.66
2022-10-07T11:48:27.270Z,101880.78
2022-10-07T11:50:56.331Z,101863.66
2022-10-07T11:53:26.586Z,101871.41
2022-10-07T11:55:58.404Z,101853.41
2022-10-07T11:58:28.087Z,101857.69
2022-10-07T12:01:40.850Z,101855.84
2022-10-07T12:04:38.315Z,101844.00
2022-10-07T12:07:40.703Z,101839.44
2022-10-07T12:10:23.330Z,101825.81
2022-10-07T12:12:52.740Z,101832.88
2022-10-07T12:15:25.853Z,101834.81
2022-10-07T12:17:56.790Z,101825.09
2022-10-07T12:20:47.803Z,101823.84
2022-10-07T12:23:43.884Z,101803.72
2022-10-07T12:26:53.829Z,101804.81
2022-10-07T12:29:31.481Z,101787.19
2022-10-07T12:32:01.719Z,101787.09
2022-10-07T12:34:43.525Z,101779.75
2022-10-07T12:37:50.174Z,101770.22
2022-10-07T12:40:21.063Z,101780.16
2022-10-07T12:42:54.804Z,101769.53
2022-10-07T12:45:22.941Z,101781.03
2022-10-07T12:47:51.220Z,101785.72
2022-10-07T12:50:21.854Z,101781.91
2022-10-07T12:52:52.973Z,101776.91
2022-10-07T12:55:24.789Z,101783.56
2022-10-07T12:58:17.427Z,101784.72
2022-10-07T13:00:47.905Z,101793.41
2022-10-07T13:03:29.082Z,101784.88
2022-10-07T13:06:36.259Z,101777.84
2022-10-07T13:09:38.566Z,101768.41
2022-10-07T13:12:35.913Z,101792.16
2022-10-07T13:15:23.821Z,101773.84
2022-10-07T13:17:53.451Z,101728.16
2022-10-07T13:20:29.312Z,101779.19
2022-10-07T13:22:57.227Z,101772.50
2022-10-07T13:25:26.424Z,101772.69
2022-10-07T13:27:56.475Z,101780.22
2022-10-07T13:30:38.806Z,101775.78
2022-10-07T13:33:20.613Z,101775.63
2022-10-07T13:35:48.656Z,101783.59
2022-10-07T13:38:23.847Z,101775.44
2022-10-07T13:40:59.697Z,101772.84
2022-10-07T13:43:28.263Z,101772.06
2022-10-07T13:45:56.191Z,101777.34
2022-10-07T13:48:25.176Z,101775.19
2022-10-07T13:50:53.213Z,101770.00
2022-10-07T13:53:22.505Z,101778.63
2022-10-07T13:55:50.451Z,101778.63
2022-10-07T13:58:19.800Z,101781.25
2022-10-07T14:00:49.043Z,101774.25
2022-10-07T14:03:17.503Z,101776.31
2022-10-07T14:05:51.449Z,101777.19
2022-10-07T14:08:30.593Z,101774.13
2022-10-07T14:11:03.236Z,101775.00
2022-10-07T14:13:32.641Z,101771.78
2022-10-07T14:16:00.673Z,101782.47
2022-10-07T14:18:29.836Z,101759.50
2022-10-07T14:21:07.618Z,101761.47
2022-10-07T14:23:36.327Z,101775.50
2022-10-07T14:26:05.057Z,101776.63
2022-10-07T14:28:34.600Z,101766.47
2022-10-07T14:31:34.358Z,101773.75
2022-10-07T14:34:27.893Z,101771.47
2022-10-07T14:37:02.876Z,101777.28
2022-10-07T14:39:35.203Z,101770.66
2022-10-07T14:42:03.581Z,101763.31
2022-10-07T14:44:32.847Z,101773.25
2022-10-07T14:47:08.066Z,101766.31
2022-10-07T14:49:36.361Z,101747.91
2022-10-07T14:52:06.241Z,101752.84
2022-10-07T14:54:44.306Z,101754.69
2022-10-07T14:57:12.178Z,101753.69
2022-10-07T14:59:42.173Z,101763.81
2022-10-07T15:02:11.233Z,101760.03
2022-10-07T15:04:40.312Z,101755.66
2022-10-07T15:07:08.328Z,101750.78
2022-10-07T15:09:36.264Z,101748.59
2022-10-07T15:12:04.264Z,101742.16
2022-10-07T15:14:32.121Z,101743.63
2022-10-07T15:17:01.570Z,101745.84
2022-10-07T15:19:29.570Z,101730.69
2022-10-07T15:21:57.464Z,101731.47
2022-10-07T15:24:25.552Z,101734.09
2022-10-07T15:26:53.665Z,101725.47
2022-10-07T15:29:22.559Z,101723.22
2022-10-07T15:31:50.461Z,101719.88
2022-10-07T15:34:19.979Z,101716.38
2022-10-07T15:36:48.693Z,101730.72
2022-10-07T15:39:16.563Z,101742.25
2022-10-07T15:41:44.824Z,101741.03
2022-10-07T15:44:17.580Z,101742.25
2022-10-07T15:46:45.999Z,101749.44
2022-10-07T15:49:13.937Z,101741.28
2022-10-07T15:51:43.357Z,101738.41
2022-10-07T15:54:11.430Z,101731.97
2022-10-07T15:56:50.205Z,101742.75
2022-10-07T15:59:18.137Z,101737.03
2022-10-07T16:01:46.404Z,101728.75
2022-10-07T16:04:15.277Z,101735.31
2022-10-07T16:06:51.277Z,101730.22
2022-10-07T16:09:19.318Z,101728.66
2022-10-07T16:11:47.685Z,101734.25
2022-10-07T16:14:16.061Z,101730.22
2022-10-07T16:16:43.956Z,101734.25
2022-10-07T16:19:12.678Z,101740.94
2022-10-07T16:21:41.884Z,101740.41
2022-10-07T16:24:13.868Z,101718.47
2022-10-07T16:26:41.868Z,101756.47
2022-10-07T16:29:31.121Z,101751.28
2022-10-07T16:31:59.427Z,101750.22
2022-10-07T16:34:28.354Z,101742.50
2022-10-07T16:36:56.739Z,101755.09
2022-10-07T16:39:26.125Z,101757.91
2022-10-07T16:41:54.957Z,101755.00
2022-10-07T16:44:23.686Z,101761.53
2022-10-07T16:46:56.503Z,101767.25
2022-10-07T16:49:26.172Z,101767.75
2022-10-07T16:51:54.365Z,101750.13
2022-10-07T16:54:22.606Z,101768.84
2022-10-07T16:56:52.658Z,101784.59
2022-10-07T16:59:23.220Z,101781.50
2022-10-07T17:01:52.296Z,101780.38
2022-10-07T17:04:20.506Z,101787.78
2022-10-07T17:06:48.759Z,101792.59
2022-10-07T17:09:17.879Z,101776.31
2022-10-07T17:11:45.731Z,101784.63
2022-10-07T17:14:16.715Z,101780.88
2022-10-07T17:16:47.263Z,101789.84
2022-10-07T17:19:17.538Z,101784.94
2022-10-07T17:21:46.372Z,101806.28
2022-10-07T17:24:14.388Z,101797.84
2022-10-07T17:26:42.342Z,101812.75
2022-10-07T17:29:12.889Z,101784.75
2022-10-07T17:31:43.543Z,101821.69
2022-10-07T17:34:11.653Z,101798.28
2022-10-07T17:36:39.942Z,101813.28
2022-10-07T17:39:08.007Z,101810.44
2022-10-07T17:41:36.725Z,101817.59
2022-10-07T17:44:07.117Z,101815.19
2022-10-07T17:46:36.490Z,101822.47
2022-10-07T17:49:07.361Z,101818.13
2022-10-07T17:51:36.488Z,101819.72
2022-10-07T17:54:04.841Z,101827.78
2022-10-07T17:56:32.954Z,101811.97
2022-10-07T17:59:00.832Z,101821.69
2022-10-07T18:01:29.659Z,101806.25
2022-10-07T18:03:58.567Z,101830.72
2022-10-07T18:06:28.840Z,101816.41
2022-10-07T18:08:58.977Z,101823.44
2022-10-07T18:11:46.945Z,101833.22
2022-10-07T18:14:32.620Z,101821.53
2022-10-07T18:17:00.548Z,101835.22
2022-10-07T18:19:29.563Z,101836.25
2022-10-07T18:21:58.916Z,101841.78
2022-10-07T18:24:28.134Z,101836.41
2022-10-07T18:26:58.406Z,101848.13
2022-10-07T18:29:26.266Z,101855.22
2022-10-07T18:31:54.232Z,101854.38
2022-10-07T18:34:22.252Z,101863.38
2022-10-07T18:36:55.238Z,101857.38
2022-10-07T18:39:29.086Z,101863.72
2022-10-07T18:41:57.405Z,101865.44
2022-10-07T18:44:33.046Z,101864.56
2022-10-07T18:47:02.733Z,101867.59
2022-10-07T18:49:32.159Z,101864.25
2022-10-07T18:52:00.854Z,101876.75
2022-10-07T18:54:34.772Z,101863.03
2022-10-07T18:57:05.791Z,101877.88
2022-10-07T18:59:34.970Z,101869.09
2022-10-07T19:02:07.272Z,101875.97
2022-10-07T19:04:36.034Z,101875.97
2022-10-07T19:07:05.354Z,101867.19
2022-10-07T19:09:35.298Z,101876.66
2022-10-07T19:12:04.271Z,101882.81
2022-10-07T19:14:32.850Z,101888.28
2022-10-07T19:17:01.119Z,101882.91
2022-10-07T19:19:30.277Z,101883.69
2022-10-07T19:22:01.941Z,101885.50
2022-10-07T19:24:44.272Z,101893.50
2022-10-07T19:27:14.666Z,101888.13
2022-10-07T19:29:44.626Z,101890.88
2022-10-07T19:32:14.718Z,101890.88
2022-10-07T19:34:42.869Z,101892.88
2022-10-07T19:37:12.028Z,101890.09
2022-10-07T19:39:41.220Z,101896.34
2022-10-07T19:42:10.578Z,101897.22
2022-10-07T19:44:40.624Z,101900.06
2022-10-07T19:47:09.216Z,101889.41
2022-10-07T19:49:38.729Z,101900.41
2022-10-07T19:52:06.987Z,101908.00
2022-10-07T19:54:45.627Z,101906.47
2022-10-07T19:57:13.677Z,101912.19
2022-10-07T19:59:44.141Z,101917.78
2022-10-07T20:02:13.980Z,101923.28
2022-10-07T20:04:44.955Z,101924.16
2022-10-07T20:07:13.167Z,101917.94
2022-10-07T20:09:41.933Z,101929.69
2022-10-07T20:12:11.293Z,101932.47
2022-10-07T20:14:40.612Z,101928.84
2022-10-07T20:17:12.145Z,101935.06
2022-10-07T20:19:41.071Z,101932.22
2022-10-07T20:22:09.849Z,101939.25
2022-10-07T20:24:39.375Z,101938.38
2022-10-07T20:27:08.657Z,101940.84
2022-10-07T20:29:56.927Z,101936.25
2022-10-07T20:32:32.590Z,101954.50
2022-10-07T20:35:01.649Z,101958.78
2022-10-07T20:37:30.398Z,101961.84
2022-10-07T20:40:16.382Z,101965.88
2022-10-07T20:42:48.707Z,101970.75
2022-10-07T20:45:18.591Z,101968.59
2022-10-07T20:47:55.291Z,101971.53
2022-10-07T20:50:24.582Z,101965.59
2022-10-07T20:52:56.234Z,101974.50
2022-10-07T20:55:24.955Z,101977.31
2022-10-07T20:57:56.312Z,101972.94
2022-10-07T21:00:25.085Z,101973.13
2022-10-07T21:02:56.035Z,101983.06
2022-10-07T21:05:25.655Z,101983.06
2022-10-07T21:07:54.947Z,101937.81
2022-10-07T21:10:23.270Z,101982.97
2022-10-07T21:12:51.950Z,101989.06
2022-10-07T21:15:20.598Z,101986.38
2022-10-07T21:17:48.975Z,101982.84
2022-10-07T21:20:18.829Z,101997.06
2022-10-07T21:22:49.070Z,101999.78
2022-10-07T21:25:18.563Z,101994.88
2022-10-07T21:27:48.321Z,101990.47
2022-10-07T21:30:17.364Z,101994.25
2022-10-07T21:32:45.878Z,101993.50
2022-10-07T21:35:14.226Z,101994.75
2022-10-07T21:37:44.292Z,102001.78
2022-10-07T21:40:12.802Z,102009.03
2022-10-07T21:42:41.169Z,102003.75
2022-10-07T21:45:11.257Z,102016.16
2022-10-07T21:47:41.533Z,102000.84
2022-10-07T21:50:11.832Z,102027.03
2022-10-07T21:52:40.105Z,102009.91
2022-10-07T21:55:11.275Z,102022.22
2022-10-07T21:57:42.745Z,102025.00
2022-10-07T22:00:13.781Z,102017.06
2022-10-07T22:02:43.632Z,102027.94
2022-10-07T22:05:14.401Z,102029.91
2022-10-07T22:08:00.107Z,102029.03
2022-10-07T22:10:30.331Z,102026.34
2022-10-07T22:12:59.353Z,102020.06
2022-10-07T22:15:28.702Z,102026.34
2022-10-07T22:17:57.252Z,102029.19
2022-10-07T22:20:26.130Z,102039.13
2022-10-07T22:22:59.096Z,102035.72
2022-10-07T22:25:36.850Z,102035.84
2022-10-07T22:28:05.040Z,102039.53
2022-10-07T22:30:33.124Z,102046.00
2022-10-07T22:33:01.554Z,102048.63
2022-10-07T22:35:34.334Z,102045.75
2022-10-07T22:38:06.708Z,102053.63
2022-10-07T22:40:39.846Z,102056.97
2022-10-07T22:43:09.454Z,102040.22
2022-10-07T22:45:37.686Z,102067.72
2022-10-07T22:48:06.668Z,102070.69
2022-10-07T22:50:34.757Z,102067.34
2022-10-07T22:53:03.206Z,102069.44
2022-10-07T22:55:31.942Z,102074.13
2022-10-07T22:58:03.138Z,102075.50
2022-10-07T23:00:31.519Z,102066.88
2022-10-07T23:03:00.505Z,102069.59
2022-10-07T23:05:28.650Z,102079.69
2022-10-07T23:07:57.117Z,102069.47
2022-10-07T23:10:25.725Z,102062.31
2022-10-07T23:12:53.668Z,102078.31
2022-10-07T23:15:22.886Z,102084.56
2022-10-07T23:17:50.933Z,102077.44
2022-10-07T23:20:20.091Z,102071.44
2022-10-07T23:22:48.321Z,102077.72
2022-10-07T23:25:17.259Z,102079.69
2022-10-07T23:27:45.431Z,102079.81
2022-10-07T23:30:15.196Z,102082.59
2022-10-07T23:32:47.655Z,102074.88
2022-10-07T23:35:16.536Z,102071.34
2022-10-07T23:37:45.103Z,102089.91
2022-10-07T23:40:13.431Z,102084.66
2022-10-07T23:42:42.027Z,102093.50
2022-10-07T23:45:11.478Z,102097.13
2022-10-07T23:47:40.313Z,102102.50
2022-10-07T23:50:13.262Z,102099.00
2022-10-07T23:52:41.681Z,102093.84
2022-10-07T23:55:12.351Z,102094.78
2022-10-07T23:57:40.513Z,102091.28
